createdAt,value
2018-12-10T00:01:52.491Z,46.13
2018-12-10T00:04:23.799Z,49.60
2018-12-10T00:06:55.329Z,51.33
2018-12-10T00:09:24.760Z,50.03
2018-12-10T00:11:54.073Z,64.37
2018-12-10T00:14:23.675Z,51.87
2018-12-10T00:16:53.156Z,48.80
2018-12-10T00:19:22.551Z,47.80
2018-12-10T00:21:51.888Z,52.53
2018-12-10T00:24:21.435Z,50.87
2018-12-10T00:26:50.752Z,47.13
2018-12-10T00:29:20.159Z,45.93
2018-12-10T00:31:49.463Z,46.00
2018-12-10T00:34:18.811Z,44.60
2018-12-10T00:36:48.269Z,46.20
2018-12-10T00:39:17.714Z,48.47
2018-12-10T00:41:47.154Z,48.03
2018-12-10T00:44:16.487Z,48.57
2018-12-10T00:46:45.685Z,43.77
2018-12-10T00:49:15.007Z,51.03
2018-12-10T00:51:44.324Z,47.30
2018-12-10T00:54:13.737Z,49.03
2018-12-10T00:56:43.139Z,41.53
2018-12-10T00:59:12.428Z,48.73
2018-12-10T01:01:41.970Z,51.23
2018-12-10T01:04:11.446Z,56.50
2018-12-10T01:06:40.993Z,52.30
2018-12-10T01:09:10.202Z,47.27
2018-12-10T01:11:39.428Z,54.77
2018-12-10T01:14:08.607Z,56.67
2018-12-10T01:16:37.859Z,56.20
2018-12-10T01:19:07.360Z,55.47
2018-12-10T01:21:36.644Z,54.23
2018-12-10T01:24:06.355Z,57.73
2018-12-10T01:26:35.730Z,61.67
2018-12-10T01:29:05.055Z,49.83
2018-12-10T01:31:34.776Z,47.50
2018-12-10T01:34:04.360Z,50.23
2018-12-10T01:36:34.029Z,52.97
2018-12-10T01:39:04.673Z,49.87
2018-12-10T01:41:35.168Z,52.97
2018-12-10T01:44:04.610Z,50.13
2018-12-10T01:46:33.888Z,52.23
2018-12-10T01:49:03.388Z,56.43
2018-12-10T01:51:32.835Z,54.43
2018-12-10T01:54:02.140Z,58.00
2018-12-10T01:56:31.570Z,58.53
2018-12-10T01:59:00.785Z,63.10
2018-12-10T02:01:30.224Z,55.37
2018-12-10T02:03:59.704Z,56.13
2018-12-10T02:06:29.191Z,57.10
2018-12-10T02:08:58.497Z,56.23
2018-12-10T02:11:28.171Z,53.93
2018-12-10T02:13:57.527Z,55.60
2018-12-10T02:16:26.984Z,55.20
2018-12-10T02:18:56.280Z,66.70
2018-12-10T02:21:25.607Z,61.60
2018-12-10T02:23:54.926Z,54.63
2018-12-10T02:26:24.697Z,55.90
2018-12-10T02:28:59.280Z,66.37
2018-12-10T02:31:28.596Z,61.13
2018-12-10T02:33:57.920Z,56.20
2018-12-10T02:36:27.212Z,51.47
2018-12-10T02:38:56.542Z,63.03
2018-12-10T02:41:26.073Z,51.33
2018-12-10T02:43:55.623Z,56.60
2018-12-10T02:46:24.869Z,63.70
2018-12-10T02:48:54.343Z,57.13
2018-12-10T02:51:23.777Z,56.37
2018-12-10T02:53:53.155Z,63.13
2018-12-10T02:56:22.585Z,57.30
2018-12-10T02:58:51.852Z,57.47
2018-12-10T03:01:21.257Z,63.83
2018-12-10T03:03:50.690Z,58.90
2018-12-10T03:06:20.040Z,54.87
2018-12-10T03:08:49.536Z,47.70
2018-12-10T03:11:18.809Z,52.23
2018-12-10T03:13:48.048Z,47.17
2018-12-10T03:16:17.215Z,42.37
2018-12-10T03:18:46.583Z,48.43
2018-12-10T03:21:15.847Z,45.37
2018-12-10T03:23:45.329Z,44.67
2018-12-10T03:26:14.589Z,43.17
2018-12-10T03:28:44.031Z,54.27
2018-12-10T03:31:13.442Z,54.17
2018-12-10T03:33:42.795Z,45.90
2018-12-10T03:36:12.184Z,49.83
2018-12-10T03:38:41.609Z,43.30
2018-12-10T03:41:10.865Z,59.93
2018-12-10T03:43:40.232Z,44.57
2018-12-10T03:46:09.463Z,45.93
2018-12-10T03:48:38.969Z,50.47
2018-12-10T03:51:08.402Z,49.47
2018-12-10T03:53:37.664Z,48.60
2018-12-10T03:56:07.008Z,51.00
2018-12-10T03:58:36.363Z,50.10
2018-12-10T04:01:05.686Z,61.67
2018-12-10T04:03:35.140Z,63.87
2018-12-10T04:06:04.441Z,63.60
2018-12-10T04:08:33.968Z,58.50
2018-12-10T04:11:03.283Z,56.50
2018-12-10T04:13:32.494Z,45.20
2018-12-10T04:16:01.816Z,53.17
2018-12-10T04:18:31.225Z,52.53
2018-12-10T04:21:00.531Z,53.93
2018-12-10T04:23:29.943Z,57.13
2018-12-10T04:26:01.421Z,57.47
2018-12-10T04:28:30.652Z,44.53
2018-12-10T04:30:59.935Z,47.73
2018-12-10T04:33:29.311Z,53.13
2018-12-10T04:35:58.729Z,53.50
2018-12-10T04:38:28.813Z,56.57
2018-12-10T04:40:58.127Z,54.67
2018-12-10T04:43:28.855Z,57.47
2018-12-10T04:45:58.357Z,60.20
2018-12-10T04:48:27.793Z,62.07
2018-12-10T04:50:57.068Z,67.23
2018-12-10T04:53:26.533Z,75.87
2018-12-10T04:55:55.962Z,78.33
2018-12-10T04:58:25.407Z,79.47
2018-12-10T05:00:54.711Z,87.37
2018-12-10T05:03:24.124Z,81.30
2018-12-10T05:05:53.588Z,66.80
2018-12-10T05:08:22.870Z,65.00
2018-12-10T05:10:52.718Z,48.47
2018-12-10T05:13:22.051Z,45.50
2018-12-10T05:15:51.484Z,48.63
2018-12-10T05:18:21.440Z,47.00
2018-12-10T05:20:50.687Z,46.37
2018-12-10T05:23:20.102Z,41.00
2018-12-10T05:25:49.524Z,50.43
2018-12-10T05:28:19.160Z,47.13
2018-12-10T05:30:48.735Z,53.17
2018-12-10T05:33:18.138Z,51.70
2018-12-10T05:35:47.739Z,59.47
2018-12-10T05:38:16.998Z,53.57
2018-12-10T05:40:46.614Z,53.60
2018-12-10T05:43:16.060Z,49.37
2018-12-10T05:45:45.483Z,50.23
2018-12-10T05:48:14.775Z,51.00
2018-12-10T05:50:44.440Z,58.27
2018-12-10T05:53:13.827Z,63.20
2018-12-10T05:55:43.412Z,66.17
2018-12-10T05:58:13.924Z,70.43
2018-12-10T06:00:43.675Z,69.63
2018-12-10T06:03:13.192Z,65.27
2018-12-10T06:05:42.403Z,64.70
2018-12-10T06:08:12.279Z,64.33
2018-12-10T06:10:41.501Z,58.40
2018-12-10T06:13:10.921Z,60.47
2018-12-10T06:15:40.590Z,62.13
2018-12-10T06:18:09.942Z,63.70
2018-12-10T06:20:39.327Z,62.47
2018-12-10T06:23:08.720Z,61.13
2018-12-10T06:25:38.150Z,57.13
2018-12-10T06:28:07.575Z,56.37
2018-12-10T06:30:36.969Z,60.03
2018-12-10T06:33:06.231Z,57.07
2018-12-10T06:35:36.029Z,57.97
2018-12-10T06:38:05.328Z,58.00
2018-12-10T06:40:34.567Z,49.60
2018-12-10T06:43:04.613Z,82.10
2018-12-10T06:45:33.988Z,91.20
2018-12-10T06:48:03.496Z,67.07
2018-12-10T06:50:32.987Z,84.13
2018-12-10T06:53:02.232Z,78.50
2018-12-10T06:55:31.582Z,89.47
2018-12-10T06:58:01.471Z,101.00
2018-12-10T07:00:30.856Z,97.70
2018-12-10T07:03:00.128Z,121.17
2018-12-10T07:05:29.904Z,101.47
2018-12-10T07:07:59.115Z,106.37
2018-12-10T07:10:28.457Z,78.73
2018-12-10T07:12:58.197Z,96.00
2018-12-10T07:15:27.452Z,73.17
2018-12-10T07:17:56.919Z,84.37
2018-12-10T07:20:26.504Z,80.13
2018-12-10T07:22:55.956Z,86.30
2018-12-10T07:25:25.247Z,107.20
2018-12-10T07:27:55.260Z,155.53
2018-12-10T07:30:24.517Z,95.53
2018-12-10T07:32:53.771Z,94.70
2018-12-10T07:35:23.565Z,103.80
2018-12-10T07:37:53.023Z,89.87
2018-12-10T07:40:22.364Z,105.80
2018-12-10T07:42:52.145Z,57.23
2018-12-10T07:45:21.339Z,45.50
2018-12-10T07:47:50.545Z,66.77
2018-12-10T07:50:20.167Z,81.83
2018-12-10T07:52:49.428Z,69.07
2018-12-10T07:55:18.753Z,66.60
2018-12-10T07:57:48.122Z,61.23
2018-12-10T08:00:17.880Z,51.70
2018-12-10T08:02:47.319Z,41.57
2018-12-10T08:05:16.669Z,40.23
2018-12-10T08:07:46.511Z,49.83
2018-12-10T08:10:16.182Z,43.00
2018-12-10T08:12:45.875Z,46.07
2018-12-10T08:15:15.459Z,41.33
2018-12-10T08:17:44.966Z,37.70
2018-12-10T08:20:14.626Z,40.03
2018-12-10T08:22:44.693Z,42.20
2018-12-10T08:25:14.205Z,40.93
2018-12-10T08:27:43.403Z,39.40
2018-12-10T08:30:12.990Z,44.70
2018-12-10T08:32:42.250Z,54.73
2018-12-10T08:35:11.753Z,49.53
2018-12-10T08:37:41.582Z,53.90
2018-12-10T08:40:11.090Z,42.23
2018-12-10T08:42:40.279Z,54.63
2018-12-10T08:45:10.458Z,47.50
2018-12-10T08:47:39.612Z,55.47
2018-12-10T08:50:09.016Z,48.50
2018-12-10T08:52:38.682Z,62.63
2018-12-10T08:55:08.076Z,55.87
2018-12-10T08:57:37.462Z,52.37
2018-12-10T09:00:07.660Z,41.43
2018-12-10T09:02:36.999Z,48.53
2018-12-10T09:05:06.714Z,44.87
2018-12-10T09:07:36.502Z,52.77
2018-12-10T09:10:07.226Z,79.20
2018-12-10T09:12:37.087Z,70.50
2018-12-10T09:15:06.928Z,71.67
2018-12-10T09:17:36.973Z,86.93
2018-12-10T09:20:06.549Z,70.77
2018-12-10T09:22:35.802Z,60.37
2018-12-10T09:25:06.215Z,71.13
2018-12-10T09:27:35.580Z,46.67
2018-12-10T09:30:06.297Z,24.40
2018-12-10T09:32:35.745Z,45.90
2018-12-10T09:35:06.009Z,28.20
2018-12-10T09:37:35.846Z,38.23
2018-12-10T09:40:06.721Z,19.83
2018-12-10T09:42:35.996Z,26.77
2018-12-10T09:45:06.675Z,30.30
2018-12-10T09:47:36.286Z,27.73
2018-12-10T09:50:06.123Z,22.10
2018-12-10T09:52:35.467Z,24.80
2018-12-10T09:55:04.804Z,27.30
2018-12-10T09:57:34.608Z,22.93
2018-12-10T10:00:04.391Z,23.37
2018-12-10T10:02:33.666Z,23.30
2018-12-10T10:05:03.237Z,27.43
2018-12-10T10:07:32.625Z,27.87
2018-12-10T10:10:03.754Z,34.27
2018-12-10T10:12:33.197Z,30.37
2018-12-10T10:15:02.558Z,31.03
2018-12-10T10:17:32.377Z,26.60
2018-12-10T10:20:01.757Z,32.37
2018-12-10T10:22:31.254Z,26.83
2018-12-10T10:25:00.653Z,34.10
2018-12-10T10:27:29.808Z,25.20
2018-12-10T10:29:59.058Z,28.23
2018-12-10T10:32:28.816Z,27.40
2018-12-10T10:34:58.188Z,35.47
2018-12-10T10:37:27.639Z,24.03
2018-12-10T10:39:57.423Z,31.57
2018-12-10T10:42:26.926Z,28.83
2018-12-10T10:44:56.534Z,27.30
2018-12-10T10:47:25.906Z,29.90
2018-12-10T10:49:55.179Z,26.63
2018-12-10T10:52:24.635Z,31.93
2018-12-10T10:54:54.011Z,26.40
2018-12-10T10:57:23.341Z,21.90
2018-12-10T10:59:52.621Z,31.27
2018-12-10T11:02:27.056Z,18.53
2018-12-10T11:04:56.375Z,23.37
2018-12-10T11:07:25.716Z,17.23
2018-12-10T11:09:55.266Z,15.30
2018-12-10T11:12:24.645Z,17.03
2018-12-10T11:14:53.871Z,18.00
2018-12-10T11:17:23.201Z,14.73
2018-12-10T11:19:52.427Z,21.10
2018-12-10T11:22:21.774Z,14.00
2018-12-10T11:24:50.995Z,16.67
2018-12-10T11:27:20.343Z,28.53
2018-12-10T11:29:49.672Z,20.73
2018-12-10T11:32:19.029Z,22.73
2018-12-10T11:34:48.513Z,38.07
2018-12-10T11:37:18.012Z,44.60
2018-12-10T11:39:47.244Z,42.47
2018-12-10T11:42:16.565Z,34.17
2018-12-10T11:44:45.920Z,24.50
2018-12-10T11:47:15.268Z,42.67
2018-12-10T11:49:44.547Z,55.17
2018-12-10T11:52:14.080Z,27.53
2018-12-10T11:54:43.509Z,26.77
2018-12-10T11:57:12.863Z,30.90
2018-12-10T11:59:42.109Z,21.17
2018-12-10T12:02:11.391Z,41.57
2018-12-10T12:04:40.796Z,24.30
2018-12-10T12:07:12.153Z,21.87
2018-12-10T12:09:41.459Z,18.73
2018-12-10T12:12:10.971Z,29.53
2018-12-10T12:14:40.464Z,20.60
2018-12-10T12:17:09.876Z,19.20
2018-12-10T12:19:45.864Z,24.10
2018-12-10T12:22:15.372Z,23.63
2018-12-10T12:24:44.891Z,22.40
2018-12-10T12:27:14.401Z,18.87
2018-12-10T12:29:43.711Z,27.97
2018-12-10T12:32:13.065Z,20.33
2018-12-10T12:34:42.551Z,22.33
2018-12-10T12:37:11.861Z,22.93
2018-12-10T12:39:41.285Z,19.87
2018-12-10T12:42:10.766Z,24.90
2018-12-10T12:44:40.042Z,29.20
2018-12-10T12:47:09.335Z,30.20
2018-12-10T12:49:38.673Z,25.63
2018-12-10T12:52:07.959Z,36.17
2018-12-10T12:54:37.411Z,29.00
2018-12-10T12:57:06.744Z,24.83
2018-12-10T12:59:36.214Z,34.00
2018-12-10T13:02:05.411Z,27.53
2018-12-10T13:04:34.968Z,25.20
2018-12-10T13:07:04.223Z,24.73
2018-12-10T13:09:33.507Z,26.73
2018-12-10T13:12:02.983Z,24.17
2018-12-10T13:14:32.344Z,23.73
2018-12-10T13:17:01.839Z,25.00
2018-12-10T13:19:31.269Z,32.80
2018-12-10T13:22:00.727Z,27.30
2018-12-10T13:24:30.163Z,21.53
2018-12-10T13:26:59.476Z,26.30
2018-12-10T13:29:31.346Z,21.87
2018-12-10T13:32:00.518Z,24.43
2018-12-10T13:34:29.770Z,21.50
2018-12-10T13:36:59.213Z,23.90
2018-12-10T13:39:28.599Z,25.40
2018-12-10T13:41:59.017Z,24.63
2018-12-10T13:44:28.372Z,25.03
2018-12-10T13:46:57.776Z,27.20
2018-12-10T13:49:27.229Z,30.73
2018-12-10T13:51:56.715Z,31.57
2018-12-10T13:54:26.139Z,31.37
2018-12-10T13:56:55.513Z,26.60
2018-12-10T13:59:24.714Z,28.43
2018-12-10T14:01:54.138Z,34.60
2018-12-10T14:04:27.946Z,35.37
2018-12-10T14:06:57.227Z,29.13
2018-12-10T14:09:26.526Z,33.23
2018-12-10T14:11:55.920Z,20.63
2018-12-10T14:14:25.338Z,17.30
2018-12-10T14:16:54.892Z,16.60
2018-12-10T14:19:24.396Z,18.13
2018-12-10T14:21:53.855Z,19.40
2018-12-10T14:24:24.403Z,20.90
2018-12-10T14:26:53.921Z,16.13
2018-12-10T14:29:23.160Z,17.10
2018-12-10T14:31:52.547Z,15.70
2018-12-10T14:34:26.060Z,17.43
2018-12-10T14:36:55.536Z,18.53
2018-12-10T14:39:25.030Z,16.40
2018-12-10T14:41:54.576Z,19.47
2018-12-10T14:44:23.899Z,18.30
2018-12-10T14:46:53.287Z,21.47
2018-12-10T14:49:22.692Z,20.70
2018-12-10T14:51:52.023Z,21.47
2018-12-10T14:54:21.322Z,22.83
2018-12-10T14:56:50.583Z,15.47
2018-12-10T14:59:20.086Z,15.93
2018-12-10T15:01:50.148Z,17.50
2018-12-10T15:04:19.554Z,15.20
2018-12-10T15:06:48.856Z,15.23
2018-12-10T15:09:18.153Z,14.67
2018-12-10T15:11:47.513Z,13.80
2018-12-10T15:14:16.832Z,13.70
2018-12-10T15:16:46.288Z,16.73
2018-12-10T15:19:15.666Z,16.47
2018-12-10T15:21:44.828Z,17.20
2018-12-10T15:24:14.189Z,14.00
2018-12-10T15:26:43.602Z,15.43
2018-12-10T15:29:13.220Z,14.90
2018-12-10T15:31:42.620Z,13.67
2018-12-10T15:34:11.984Z,15.43
2018-12-10T15:36:41.438Z,14.73
2018-12-10T15:39:10.698Z,13.53
2018-12-10T15:41:40.262Z,15.80
2018-12-10T15:44:09.749Z,17.60
2018-12-10T15:46:39.147Z,17.57
2018-12-10T15:49:08.648Z,20.70
2018-12-10T15:51:37.875Z,25.40
2018-12-10T15:54:07.131Z,21.20
2018-12-10T15:56:36.683Z,19.70
2018-12-10T15:59:06.146Z,22.97
2018-12-10T16:01:35.583Z,23.07
2018-12-10T16:04:04.815Z,23.40
2018-12-10T16:06:34.191Z,21.70
2018-12-10T16:09:05.230Z,24.87
2018-12-10T16:11:35.841Z,23.43
2018-12-10T16:14:06.268Z,22.77
2018-12-10T16:16:35.844Z,19.33
2018-12-10T16:19:05.079Z,17.63
2018-12-10T16:21:34.422Z,18.70
2018-12-10T16:24:03.968Z,20.20
2018-12-10T16:26:33.321Z,21.50
2018-12-10T16:29:02.579Z,27.23
2018-12-10T16:31:32.079Z,51.10
2018-12-10T16:34:01.404Z,38.47
2018-12-10T16:36:30.879Z,62.33
2018-12-10T16:39:00.197Z,22.50
2018-12-10T16:41:29.880Z,39.07
2018-12-10T16:43:59.341Z,20.40
2018-12-10T16:46:28.868Z,19.33
2018-12-10T16:48:58.070Z,26.10
2018-12-10T16:51:27.415Z,27.93
2018-12-10T16:53:56.667Z,25.23
2018-12-10T16:56:26.250Z,25.87
2018-12-10T16:58:55.516Z,21.07
2018-12-10T17:01:24.924Z,64.80
2018-12-10T17:03:54.747Z,53.70
2018-12-10T17:06:24.322Z,22.77
2018-12-10T17:08:53.872Z,33.63
2018-12-10T17:11:23.666Z,25.07
2018-12-10T17:13:54.051Z,25.73
2018-12-10T17:16:23.815Z,70.73
2018-12-10T17:18:53.078Z,15.67
2018-12-10T17:21:22.498Z,16.30
2018-12-10T17:23:52.071Z,19.30
2018-12-10T17:26:21.517Z,15.87
2018-12-10T17:28:50.926Z,21.37
2018-12-10T17:31:20.590Z,10.63
2018-12-10T17:33:50.017Z,13.07
2018-12-10T17:36:19.799Z,12.93
2018-12-10T17:38:48.994Z,15.43
2018-12-10T17:41:18.346Z,18.13
2018-12-10T17:43:47.974Z,19.97
2018-12-10T17:46:17.185Z,15.80
2018-12-10T17:48:46.556Z,17.00
2018-12-10T17:51:16.087Z,15.33
2018-12-10T17:53:45.575Z,18.50
2018-12-10T17:56:14.954Z,10.10
2018-12-10T17:58:44.780Z,22.80
2018-12-10T18:01:14.178Z,17.77
2018-12-10T18:03:43.595Z,14.13
2018-12-10T18:06:13.316Z,17.03
2018-12-10T18:08:42.683Z,25.73
2018-12-10T18:11:12.179Z,27.07
2018-12-10T18:13:41.887Z,32.47
2018-12-10T18:16:11.096Z,34.03
2018-12-10T18:18:40.396Z,43.73
2018-12-10T18:21:10.615Z,41.50
2018-12-10T18:23:40.170Z,48.13
2018-12-10T18:26:09.491Z,46.47
2018-12-10T18:28:38.958Z,24.33
2018-12-10T18:31:08.895Z,19.60
2018-12-10T18:33:38.201Z,17.30
2018-12-10T18:36:08.152Z,21.33
2018-12-10T18:38:37.390Z,16.10
2018-12-10T18:41:06.833Z,12.83
2018-12-10T18:43:36.351Z,14.83
2018-12-10T18:46:05.704Z,19.20
2018-12-10T18:48:35.060Z,17.13
2018-12-10T18:51:05.841Z,21.73
2018-12-10T18:53:35.083Z,15.13
2018-12-10T18:56:04.738Z,14.17
2018-12-10T18:58:34.191Z,17.90
2018-12-10T19:01:03.566Z,24.90
2018-12-10T19:03:32.897Z,22.03
2018-12-10T19:06:02.619Z,14.47
2018-12-10T19:08:31.964Z,12.13
2018-12-10T19:11:01.615Z,13.67
2018-12-10T19:13:30.857Z,14.00
2018-12-10T19:16:00.481Z,9.57
2018-12-10T19:18:30.500Z,12.00
2018-12-10T19:21:00.175Z,10.93
2018-12-10T19:23:29.347Z,10.87
2018-12-10T19:25:59.256Z,13.57
2018-12-10T19:28:30.193Z,7.97
2018-12-10T19:30:59.814Z,8.90
2018-12-10T19:33:29.275Z,7.40
2018-12-10T19:35:58.558Z,8.10
2018-12-10T19:38:28.219Z,8.00
2018-12-10T19:40:57.689Z,10.27
2018-12-10T19:43:26.968Z,6.80
2018-12-10T19:45:56.781Z,8.00
2018-12-10T19:48:26.229Z,12.57
2018-12-10T19:50:55.563Z,14.07
2018-12-10T19:53:24.839Z,11.30
2018-12-10T19:55:54.327Z,10.03
2018-12-10T19:58:23.924Z,11.87
2018-12-10T20:00:53.300Z,8.63
2018-12-10T20:03:22.725Z,12.03
2018-12-10T20:05:57.401Z,14.83
2018-12-10T20:08:26.633Z,17.10
2018-12-10T20:10:55.941Z,9.70
2018-12-10T20:13:25.605Z,9.43
2018-12-10T20:15:55.096Z,8.20
2018-12-10T20:18:24.369Z,18.67
2018-12-10T20:20:54.044Z,16.27
2018-12-10T20:23:23.410Z,11.43
2018-12-10T20:25:52.639Z,11.83
2018-12-10T20:28:22.653Z,17.03
2018-12-10T20:30:52.010Z,12.13
2018-12-10T20:33:21.475Z,8.17
2018-12-10T20:35:51.415Z,11.90
2018-12-10T20:38:20.929Z,10.13
2018-12-10T20:40:50.333Z,19.03
2018-12-10T20:43:20.038Z,8.73
2018-12-10T20:45:49.325Z,9.87
2018-12-10T20:48:18.997Z,7.60
2018-12-10T20:50:48.343Z,8.23
2018-12-10T20:53:17.652Z,9.23
2018-12-10T20:55:47.520Z,8.53
2018-12-10T20:58:16.813Z,8.73
2018-12-10T21:00:46.263Z,8.50
2018-12-10T21:03:16.222Z,6.57
2018-12-10T21:05:50.656Z,7.40
2018-12-10T21:08:20.535Z,5.53
2018-12-10T21:10:50.053Z,7.90
2018-12-10T21:13:19.568Z,6.70
2018-12-10T21:15:49.297Z,10.70
2018-12-10T21:18:18.634Z,9.17
2018-12-10T21:20:48.235Z,6.00
2018-12-10T21:23:17.933Z,9.47
2018-12-10T21:25:47.494Z,10.87
2018-12-10T21:28:16.879Z,6.50
2018-12-10T21:30:46.580Z,5.03
2018-12-10T21:33:16.349Z,6.10
2018-12-10T21:35:45.678Z,4.57
2018-12-10T21:38:14.867Z,9.57
2018-12-10T21:40:44.536Z,5.10
2018-12-10T21:43:13.807Z,4.73
2018-12-10T21:45:43.319Z,6.20
2018-12-10T21:48:13.154Z,3.70
2018-12-10T21:50:42.529Z,5.10
2018-12-10T21:53:12.075Z,8.60
2018-12-10T21:55:42.001Z,6.37
2018-12-10T21:58:11.460Z,7.07
2018-12-10T22:00:40.759Z,6.77
2018-12-10T22:03:10.703Z,7.13
2018-12-10T22:05:40.079Z,5.27
2018-12-10T22:08:10.575Z,5.97
2018-12-10T22:10:40.566Z,8.20
2018-12-10T22:13:09.970Z,6.37
2018-12-10T22:15:39.331Z,8.37
2018-12-10T22:18:08.984Z,6.67
2018-12-10T22:20:38.443Z,6.30
2018-12-10T22:23:07.693Z,4.17
2018-12-10T22:25:37.300Z,8.50
2018-12-10T22:28:06.655Z,7.13
2018-12-10T22:30:35.981Z,10.53
2018-12-10T22:33:05.503Z,7.63
2018-12-10T22:35:34.763Z,10.80
2018-12-10T22:38:04.120Z,8.97
2018-12-10T22:40:34.344Z,7.93
2018-12-10T22:43:03.492Z,5.03
2018-12-10T22:45:33.231Z,5.17
2018-12-10T22:48:02.626Z,5.53
2018-12-10T22:50:31.922Z,4.37
2018-12-10T22:53:02.395Z,5.73
2018-12-10T22:55:31.754Z,6.23
2018-12-10T22:58:01.273Z,4.67
2018-12-10T23:00:36.233Z,4.70
2018-12-10T23:03:07.627Z,4.33
2018-12-10T23:05:38.072Z,6.17
2018-12-10T23:08:09.369Z,5.77
2018-12-10T23:10:38.956Z,9.27
2018-12-10T23:13:08.176Z,6.50
2018-12-10T23:15:37.637Z,7.43
2018-12-10T23:18:07.459Z,7.43
2018-12-10T23:20:36.755Z,4.60
2018-12-10T23:23:05.977Z,4.10
2018-12-10T23:25:35.484Z,5.20
2018-12-10T23:28:04.743Z,4.70
2018-12-10T23:30:34.505Z,7.63
2018-12-10T23:33:03.804Z,4.13
2018-12-10T23:35:33.094Z,5.67
2018-12-10T23:38:02.327Z,3.90
2018-12-10T23:40:31.678Z,3.03
2018-12-10T23:43:06.313Z,3.57
2018-12-10T23:45:35.727Z,4.27
2018-12-10T23:48:05.393Z,4.50
2018-12-10T23:50:34.803Z,3.63
2018-12-10T23:53:04.156Z,5.73
2018-12-10T23:55:33.727Z,3.70
2018-12-10T23:58:03.176Z,3.07
